createdAt,value
2019-02-19T00:01:36.335Z,77.67
2019-02-19T00:03:24.583Z,79.27
2019-02-19T00:05:00.298Z,78.03
2019-02-19T00:06:35.815Z,77.07
2019-02-19T00:08:11.415Z,76.33
2019-02-19T00:09:47.256Z,76.83
2019-02-19T00:11:22.860Z,73.60
2019-02-19T00:12:58.563Z,75.87
2019-02-19T00:14:34.170Z,77.73
2019-02-19T00:16:09.787Z,80.77
2019-02-19T00:17:45.389Z,79.63
2019-02-19T00:19:20.990Z,82.40
2019-02-19T00:20:56.601Z,82.07
2019-02-19T00:22:32.247Z,80.03
2019-02-19T00:24:07.863Z,80.33
2019-02-19T00:25:43.513Z,80.63
2019-02-19T00:27:19.219Z,76.33
2019-02-19T00:28:56.215Z,82.57
2019-02-19T00:30:31.824Z,73.67
2019-02-19T00:32:07.342Z,78.77
2019-02-19T00:33:42.851Z,81.10
2019-02-19T00:35:18.471Z,80.93
2019-02-19T00:36:54.033Z,77.60
2019-02-19T00:38:29.655Z,78.97
2019-02-19T00:40:05.723Z,79.13
2019-02-19T00:41:41.423Z,78.30
2019-02-19T00:43:17.066Z,69.80
2019-02-19T00:44:52.741Z,73.90
2019-02-19T00:46:28.279Z,70.17
2019-02-19T00:48:03.888Z,75.60
2019-02-19T00:49:39.536Z,75.70
2019-02-19T00:51:15.142Z,70.27
2019-02-19T00:52:50.764Z,73.63
2019-02-19T00:54:26.460Z,72.53
2019-02-19T00:56:02.195Z,70.10
2019-02-19T00:57:37.798Z,68.43
2019-02-19T00:59:13.408Z,75.77
2019-02-19T01:00:48.903Z,76.83
2019-02-19T01:02:24.520Z,74.73
2019-02-19T01:04:00.124Z,74.80
2019-02-19T01:05:35.935Z,71.90
2019-02-19T01:07:11.644Z,79.80
2019-02-19T01:08:47.262Z,71.77
2019-02-19T01:10:22.917Z,77.00
2019-02-19T01:11:58.557Z,69.23
2019-02-19T01:13:34.060Z,70.93
2019-02-19T01:15:11.012Z,71.90
2019-02-19T01:16:46.756Z,69.53
2019-02-19T01:18:22.360Z,75.53
2019-02-19T01:19:58.068Z,70.00
2019-02-19T01:21:33.678Z,72.13
2019-02-19T01:23:10.753Z,73.43
2019-02-19T01:24:46.259Z,76.03
2019-02-19T01:26:21.870Z,65.87
2019-02-19T01:27:57.476Z,74.17
2019-02-19T01:29:33.139Z,72.27
2019-02-19T01:31:08.699Z,70.33
2019-02-19T01:32:44.319Z,72.13
2019-02-19T01:34:19.819Z,74.47
2019-02-19T01:35:55.527Z,77.50
2019-02-19T01:37:31.028Z,74.20
2019-02-19T01:39:06.717Z,72.10
2019-02-19T01:40:42.426Z,72.53
2019-02-19T01:42:18.867Z,71.23
2019-02-19T01:43:54.553Z,68.67
2019-02-19T01:45:33.995Z,72.93
2019-02-19T01:47:07.579Z,72.50
2019-02-19T01:48:43.202Z,69.60
2019-02-19T01:50:18.903Z,71.07
2019-02-19T01:51:55.915Z,73.43
2019-02-19T01:53:31.516Z,73.93
2019-02-19T01:55:08.936Z,72.47
2019-02-19T01:56:44.458Z,73.60
2019-02-19T01:58:20.074Z,72.63
2019-02-19T01:59:55.779Z,74.17
2019-02-19T02:01:31.425Z,77.13
2019-02-19T02:03:07.107Z,74.40
2019-02-19T02:04:42.714Z,74.03
2019-02-19T02:06:18.211Z,73.97
2019-02-19T02:07:54.027Z,74.70
2019-02-19T02:09:29.534Z,76.33
2019-02-19T02:11:05.282Z,77.73
2019-02-19T02:12:42.317Z,76.90
2019-02-19T02:14:17.928Z,78.23
2019-02-19T02:15:53.533Z,73.20
2019-02-19T02:17:29.141Z,74.97
2019-02-19T02:19:04.787Z,77.77
2019-02-19T02:20:41.056Z,74.20
2019-02-19T02:22:16.781Z,77.07
2019-02-19T02:23:52.411Z,76.13
2019-02-19T02:25:28.133Z,78.13
2019-02-19T02:27:03.661Z,69.43
2019-02-19T02:28:39.297Z,74.23
2019-02-19T02:30:14.990Z,78.63
2019-02-19T02:31:50.571Z,76.77
2019-02-19T02:33:26.184Z,68.43
2019-02-19T02:35:01.805Z,72.00
2019-02-19T02:36:37.320Z,67.67
2019-02-19T02:38:12.941Z,72.53
2019-02-19T02:39:48.560Z,76.67
2019-02-19T02:41:24.086Z,76.37
2019-02-19T02:42:59.863Z,76.90
2019-02-19T02:44:35.464Z,79.63
2019-02-19T02:46:11.069Z,77.97
2019-02-19T02:47:46.690Z,78.93
2019-02-19T02:49:22.187Z,77.37
2019-02-19T02:50:59.193Z,78.83
2019-02-19T02:52:34.932Z,80.33
2019-02-19T02:54:10.531Z,75.70
2019-02-19T02:55:45.968Z,73.57
2019-02-19T02:57:21.466Z,75.70
2019-02-19T02:58:57.095Z,76.13
2019-02-19T03:00:32.610Z,76.90
2019-02-19T03:02:08.289Z,77.77
2019-02-19T03:03:43.883Z,77.07
2019-02-19T03:05:19.595Z,76.60
2019-02-19T03:07:14.917Z,78.27
2019-02-19T03:08:50.537Z,73.40
2019-02-19T03:10:27.569Z,76.93
2019-02-19T03:12:03.295Z,72.53
2019-02-19T03:13:38.874Z,77.20
2019-02-19T03:15:15.059Z,73.10
2019-02-19T03:16:50.691Z,77.97
2019-02-19T03:18:26.287Z,73.57
2019-02-19T03:20:01.818Z,79.23
2019-02-19T03:21:37.473Z,76.30
2019-02-19T03:23:13.283Z,76.53
2019-02-19T03:24:48.902Z,79.10
2019-02-19T03:26:24.709Z,81.03
2019-02-19T03:28:00.316Z,81.57
2019-02-19T03:29:35.933Z,80.47
2019-02-19T03:31:11.634Z,81.60
2019-02-19T03:32:47.417Z,82.83
2019-02-19T03:34:23.020Z,84.30
2019-02-19T03:35:58.854Z,81.13
2019-02-19T03:37:34.463Z,84.50
2019-02-19T03:39:10.064Z,83.43
2019-02-19T03:40:45.778Z,83.47
2019-02-19T03:42:21.483Z,80.50
2019-02-19T03:43:56.999Z,83.57
2019-02-19T03:45:32.677Z,84.90
2019-02-19T03:47:08.284Z,83.53
2019-02-19T03:48:43.924Z,91.27
2019-02-19T03:50:19.736Z,86.60
2019-02-19T03:51:55.244Z,84.77
2019-02-19T03:53:30.919Z,83.93
2019-02-19T03:55:06.527Z,84.17
2019-02-19T03:56:42.124Z,83.87
2019-02-19T03:58:17.857Z,80.70
2019-02-19T03:59:53.470Z,84.67
2019-02-19T04:01:29.165Z,78.00
2019-02-19T04:03:04.868Z,86.87
2019-02-19T04:04:40.503Z,87.30
2019-02-19T04:06:16.116Z,87.87
2019-02-19T04:07:51.837Z,87.60
2019-02-19T04:09:27.640Z,81.77
2019-02-19T04:11:03.258Z,82.83
2019-02-19T04:12:38.870Z,87.87
2019-02-19T04:14:14.472Z,86.23
2019-02-19T04:15:50.094Z,86.33
2019-02-19T04:17:25.721Z,86.47
2019-02-19T04:19:01.296Z,87.07
2019-02-19T04:20:36.916Z,86.33
2019-02-19T04:22:12.517Z,87.13
2019-02-19T04:23:48.250Z,88.20
2019-02-19T04:25:23.853Z,89.17
2019-02-19T04:26:59.385Z,91.10
2019-02-19T04:28:34.988Z,92.70
2019-02-19T04:30:10.664Z,91.27
2019-02-19T04:31:46.287Z,90.63
2019-02-19T04:33:21.890Z,91.67
2019-02-19T04:34:57.393Z,93.13
2019-02-19T04:36:32.995Z,92.27
2019-02-19T04:38:08.676Z,89.87
2019-02-19T04:39:44.382Z,87.87
2019-02-19T04:41:20.109Z,90.13
2019-02-19T04:42:55.713Z,94.67
2019-02-19T04:44:32.705Z,94.00
2019-02-19T04:46:08.340Z,94.43
2019-02-19T04:47:43.938Z,91.77
2019-02-19T04:49:19.541Z,94.53
2019-02-19T04:50:55.143Z,99.50
2019-02-19T04:52:30.751Z,98.07
2019-02-19T04:54:06.361Z,107.23
2019-02-19T04:55:42.072Z,96.07
2019-02-19T04:57:17.708Z,101.73
2019-02-19T04:58:53.319Z,108.40
2019-02-19T05:00:28.947Z,108.37
2019-02-19T05:02:04.720Z,109.57
2019-02-19T05:03:40.334Z,109.27
2019-02-19T05:05:15.982Z,108.40
2019-02-19T05:06:51.602Z,108.13
2019-02-19T05:08:27.111Z,103.63
2019-02-19T05:10:02.719Z,101.30
2019-02-19T05:11:38.326Z,100.03
2019-02-19T05:13:13.944Z,101.70
2019-02-19T05:14:49.581Z,96.27
2019-02-19T05:16:25.184Z,99.07
2019-02-19T05:18:00.930Z,103.03
2019-02-19T05:19:36.534Z,95.23
2019-02-19T05:21:12.232Z,98.97
2019-02-19T05:22:47.728Z,100.07
2019-02-19T05:24:23.276Z,106.10
2019-02-19T05:25:58.987Z,101.67
2019-02-19T05:27:34.498Z,98.37
2019-02-19T05:29:10.110Z,103.60
2019-02-19T05:30:45.631Z,101.60
2019-02-19T05:32:21.249Z,105.60
2019-02-19T05:33:56.868Z,106.43
2019-02-19T05:35:32.587Z,107.53
2019-02-19T05:37:08.210Z,107.20
2019-02-19T05:38:43.918Z,107.77
2019-02-19T05:40:19.528Z,103.57
2019-02-19T05:41:55.140Z,103.37
2019-02-19T05:43:30.825Z,107.50
2019-02-19T05:45:09.826Z,106.80
2019-02-19T05:46:49.903Z,104.23
2019-02-19T05:48:22.743Z,108.33
2019-02-19T05:49:58.399Z,109.67
2019-02-19T05:51:34.176Z,107.63
2019-02-19T05:53:09.919Z,112.27
2019-02-19T05:54:45.496Z,110.40
2019-02-19T05:56:21.137Z,104.60
2019-02-19T05:57:56.647Z,104.83
2019-02-19T05:59:33.459Z,103.23
2019-02-19T06:01:08.967Z,100.57
2019-02-19T06:02:44.681Z,95.00
2019-02-19T06:04:20.191Z,95.97
2019-02-19T06:05:55.811Z,92.17
2019-02-19T06:07:31.516Z,93.47
2019-02-19T06:09:07.230Z,92.03
2019-02-19T06:10:44.234Z,89.07
2019-02-19T06:12:19.942Z,89.47
2019-02-19T06:13:55.381Z,88.13
2019-02-19T06:15:30.968Z,89.30
2019-02-19T06:17:06.596Z,86.40
2019-02-19T06:18:42.207Z,82.50
2019-02-19T06:20:17.994Z,85.60
2019-02-19T06:21:53.681Z,83.00
2019-02-19T06:23:29.517Z,86.10
2019-02-19T06:25:07.852Z,88.53
2019-02-19T06:26:43.408Z,86.73
2019-02-19T06:28:19.318Z,82.57
2019-02-19T06:29:56.317Z,81.20
2019-02-19T06:31:31.989Z,83.37
2019-02-19T06:33:07.499Z,78.33
2019-02-19T06:34:43.137Z,79.97
2019-02-19T06:36:18.736Z,78.63
2019-02-19T06:37:54.338Z,80.57
2019-02-19T06:39:30.027Z,71.90
2019-02-19T06:41:05.697Z,77.33
2019-02-19T06:42:41.337Z,77.37
2019-02-19T06:44:16.944Z,79.53
2019-02-19T06:45:52.729Z,79.63
2019-02-19T06:47:28.535Z,79.20
2019-02-19T06:49:04.176Z,76.30
2019-02-19T06:50:39.842Z,75.80
2019-02-19T06:52:15.351Z,77.97
2019-02-19T06:53:51.017Z,78.83
2019-02-19T06:55:26.728Z,76.63
2019-02-19T06:57:02.428Z,82.20
2019-02-19T06:58:37.923Z,84.17
2019-02-19T07:00:15.917Z,83.07
2019-02-19T07:01:59.453Z,83.30
2019-02-19T07:03:39.491Z,76.93
2019-02-19T07:05:16.739Z,83.33
2019-02-19T07:06:52.357Z,83.20
2019-02-19T07:08:28.005Z,88.23
2019-02-19T07:10:04.082Z,84.83
2019-02-19T07:11:39.850Z,85.00
2019-02-19T07:13:15.567Z,88.67
2019-02-19T07:14:51.203Z,85.80
2019-02-19T07:16:26.848Z,92.97
2019-02-19T07:18:02.724Z,104.07
2019-02-19T07:19:38.343Z,109.17
2019-02-19T07:21:13.953Z,102.30
2019-02-19T07:22:49.574Z,90.43
2019-02-19T07:24:25.170Z,95.80
2019-02-19T07:26:00.774Z,90.53
2019-02-19T07:27:38.822Z,90.67
2019-02-19T07:29:15.131Z,96.00
2019-02-19T07:30:50.835Z,91.97
2019-02-19T07:32:26.334Z,99.17
2019-02-19T07:34:01.942Z,95.07
2019-02-19T07:35:37.616Z,95.13
2019-02-19T07:37:13.328Z,100.13
2019-02-19T07:38:49.036Z,96.17
2019-02-19T07:40:24.556Z,98.20
2019-02-19T07:42:00.258Z,91.10
2019-02-19T07:43:35.781Z,90.00
2019-02-19T07:45:13.398Z,93.60
2019-02-19T07:46:49.007Z,93.20
2019-02-19T07:48:24.678Z,91.27
2019-02-19T07:50:00.324Z,89.17
2019-02-19T07:51:36.030Z,85.47
2019-02-19T07:53:11.633Z,80.90
2019-02-19T07:54:47.350Z,85.93
2019-02-19T07:56:22.964Z,80.83
2019-02-19T07:57:58.871Z,81.57
2019-02-19T07:59:34.478Z,83.23
2019-02-19T08:01:10.103Z,83.53
2019-02-19T08:02:45.699Z,84.97
2019-02-19T08:04:21.306Z,79.77
2019-02-19T08:05:57.015Z,80.83
2019-02-19T08:07:34.090Z,74.33
2019-02-19T08:09:12.067Z,81.67
2019-02-19T08:10:49.075Z,82.77
2019-02-19T08:12:26.247Z,82.80
2019-02-19T08:14:02.054Z,70.53
2019-02-19T08:15:37.907Z,61.70
2019-02-19T08:17:13.689Z,60.50
2019-02-19T08:18:49.296Z,52.17
2019-02-19T08:20:24.931Z,54.60
2019-02-19T08:22:00.439Z,53.70
2019-02-19T08:23:36.049Z,49.63
2019-02-19T08:25:11.759Z,49.23
2019-02-19T08:26:47.519Z,48.77
2019-02-19T08:28:24.524Z,48.10
2019-02-19T08:30:00.270Z,48.47
2019-02-19T08:31:35.926Z,45.67
2019-02-19T08:33:11.469Z,48.23
2019-02-19T08:34:47.064Z,45.57
2019-02-19T08:36:22.680Z,48.30
2019-02-19T08:37:58.293Z,45.60
2019-02-19T08:39:33.900Z,44.70
2019-02-19T08:41:09.589Z,44.20
2019-02-19T08:42:45.299Z,46.27
2019-02-19T08:44:21.017Z,43.63
2019-02-19T08:45:56.630Z,43.23
2019-02-19T08:47:32.346Z,43.00
2019-02-19T08:49:07.986Z,43.43
2019-02-19T08:50:43.589Z,42.77
2019-02-19T08:52:19.201Z,43.10
2019-02-19T08:53:54.814Z,43.43
2019-02-19T08:55:30.343Z,39.47
2019-02-19T08:57:06.047Z,37.97
2019-02-19T08:58:41.662Z,41.40
2019-02-19T09:00:18.675Z,38.37
2019-02-19T09:01:54.386Z,37.93
2019-02-19T09:03:29.895Z,36.30
2019-02-19T09:05:07.617Z,37.17
2019-02-19T09:06:43.211Z,34.30
2019-02-19T09:08:18.853Z,33.00
2019-02-19T09:09:54.554Z,32.17
2019-02-19T09:11:30.263Z,33.30
2019-02-19T09:13:05.800Z,32.30
2019-02-19T09:14:41.483Z,31.60
2019-02-19T09:16:18.508Z,31.97
2019-02-19T09:17:54.213Z,32.40
2019-02-19T09:19:29.732Z,31.97
2019-02-19T09:21:05.439Z,31.93
2019-02-19T09:22:41.156Z,32.57
2019-02-19T09:24:16.790Z,34.13
2019-02-19T09:25:52.499Z,33.47
2019-02-19T09:27:28.108Z,31.67
2019-02-19T09:29:03.718Z,33.40
2019-02-19T09:30:39.321Z,33.27
2019-02-19T09:32:14.933Z,34.10
2019-02-19T09:33:50.537Z,33.53
2019-02-19T09:35:26.139Z,32.80
2019-02-19T09:37:01.854Z,32.20
2019-02-19T09:38:37.580Z,30.50
2019-02-19T09:40:22.989Z,33.70
2019-02-19T09:41:58.785Z,33.90
2019-02-19T09:43:35.721Z,32.87
2019-02-19T09:45:11.645Z,31.07
2019-02-19T09:46:47.455Z,30.90
2019-02-19T09:48:23.083Z,31.43
2019-02-19T09:49:58.798Z,30.07
2019-02-19T09:51:34.416Z,30.97
2019-02-19T09:53:10.095Z,30.00
2019-02-19T09:54:45.709Z,30.30
2019-02-19T09:56:21.416Z,31.17
2019-02-19T09:57:56.916Z,31.43
2019-02-19T09:59:32.533Z,33.07
2019-02-19T10:01:08.168Z,31.10
2019-02-19T10:02:44.076Z,30.77
2019-02-19T10:04:19.938Z,31.77
2019-02-19T10:05:55.669Z,30.47
2019-02-19T10:07:31.384Z,31.80
2019-02-19T10:09:08.900Z,31.77
2019-02-19T10:10:44.527Z,31.50
2019-02-19T10:12:20.138Z,32.47
2019-02-19T10:13:55.854Z,32.83
2019-02-19T10:15:31.469Z,31.50
2019-02-19T10:17:07.142Z,32.60
2019-02-19T10:18:42.863Z,34.87
2019-02-19T10:20:18.575Z,35.43
2019-02-19T10:21:54.181Z,34.60
2019-02-19T10:23:29.798Z,34.57
2019-02-19T10:25:10.186Z,34.37
2019-02-19T10:26:45.787Z,33.60
2019-02-19T10:28:21.399Z,35.60
2019-02-19T10:29:57.023Z,35.53
2019-02-19T10:31:32.690Z,36.03
2019-02-19T10:33:09.693Z,36.40
2019-02-19T10:34:45.372Z,35.23
2019-02-19T10:36:20.992Z,34.90
2019-02-19T10:37:56.603Z,36.60
2019-02-19T10:39:32.218Z,38.20
2019-02-19T10:41:07.656Z,39.30
2019-02-19T10:42:43.170Z,37.33
2019-02-19T10:44:18.881Z,38.67
2019-02-19T10:45:54.381Z,37.97
2019-02-19T10:47:29.991Z,39.17
2019-02-19T10:49:05.556Z,39.23
2019-02-19T10:50:41.192Z,39.27
2019-02-19T10:52:16.800Z,37.53
2019-02-19T10:53:52.594Z,37.40
2019-02-19T10:55:28.315Z,36.93
2019-02-19T10:57:03.932Z,37.00
2019-02-19T10:58:40.955Z,37.43
2019-02-19T11:00:19.369Z,36.13
2019-02-19T11:01:54.781Z,35.17
2019-02-19T11:03:30.326Z,33.07
2019-02-19T11:05:09.255Z,32.33
2019-02-19T11:06:45.015Z,34.30
2019-02-19T11:08:20.628Z,33.80
2019-02-19T11:09:56.270Z,32.33
2019-02-19T11:11:31.970Z,32.03
2019-02-19T11:13:07.594Z,31.67
2019-02-19T11:14:43.105Z,31.43
2019-02-19T11:16:20.149Z,30.27
2019-02-19T11:17:55.766Z,30.37
2019-02-19T11:19:31.370Z,28.50
2019-02-19T11:21:06.974Z,30.10
2019-02-19T11:22:42.733Z,31.13
2019-02-19T11:24:18.408Z,29.57
2019-02-19T11:25:53.998Z,28.37
2019-02-19T11:27:29.692Z,29.50
2019-02-19T11:29:05.317Z,26.13
2019-02-19T11:30:40.918Z,27.23
2019-02-19T11:32:16.635Z,25.90
2019-02-19T11:33:52.285Z,25.47
2019-02-19T11:35:27.920Z,26.87
2019-02-19T11:37:03.501Z,29.73
2019-02-19T11:38:39.011Z,30.20
2019-02-19T11:40:15.354Z,27.40
2019-02-19T11:41:51.473Z,25.43
2019-02-19T11:43:27.960Z,28.37
2019-02-19T11:45:04.005Z,28.00
2019-02-19T11:46:39.706Z,26.17
2019-02-19T11:48:15.324Z,26.63
2019-02-19T11:49:50.793Z,26.40
2019-02-19T11:51:26.399Z,25.80
2019-02-19T11:53:02.009Z,25.77
2019-02-19T11:54:37.724Z,26.90
2019-02-19T11:56:13.361Z,27.70
2019-02-19T11:57:51.011Z,27.83
2019-02-19T11:59:26.740Z,29.53
2019-02-19T12:01:02.405Z,27.47
2019-02-19T12:02:38.056Z,26.00
2019-02-19T12:04:13.779Z,24.33
2019-02-19T12:05:49.385Z,33.27
2019-02-19T12:07:25.072Z,26.40
2019-02-19T12:09:00.708Z,25.97
2019-02-19T12:10:36.309Z,24.67
2019-02-19T12:12:13.554Z,25.67
2019-02-19T12:13:49.231Z,24.90
2019-02-19T12:15:24.864Z,23.87
2019-02-19T12:17:00.467Z,25.60
2019-02-19T12:18:36.082Z,26.60
2019-02-19T12:20:13.951Z,25.27
2019-02-19T12:21:49.579Z,24.90
2019-02-19T12:23:25.195Z,33.73
2019-02-19T12:25:00.797Z,27.03
2019-02-19T12:26:36.407Z,26.67
2019-02-19T12:28:12.048Z,27.13
2019-02-19T12:29:47.652Z,25.47
2019-02-19T12:31:23.165Z,25.70
2019-02-19T12:32:58.788Z,29.53
2019-02-19T12:34:34.527Z,28.10
2019-02-19T12:36:10.118Z,27.37
2019-02-19T12:37:45.835Z,26.47
2019-02-19T12:39:22.841Z,26.47
2019-02-19T12:40:58.485Z,25.10
2019-02-19T12:42:34.203Z,25.67
2019-02-19T12:44:10.128Z,24.27
2019-02-19T12:45:47.122Z,25.37
2019-02-19T12:47:22.743Z,25.87
2019-02-19T12:48:58.450Z,25.80
2019-02-19T12:50:34.158Z,28.83
2019-02-19T12:52:09.680Z,27.47
2019-02-19T12:53:45.396Z,24.37
2019-02-19T12:55:21.104Z,24.53
2019-02-19T12:56:56.786Z,26.40
2019-02-19T12:58:32.387Z,24.40
2019-02-19T13:00:16.082Z,27.60
2019-02-19T13:01:51.743Z,27.17
2019-02-19T13:03:27.346Z,26.60
2019-02-19T13:05:02.958Z,26.43
2019-02-19T13:06:38.710Z,25.53
2019-02-19T13:08:14.324Z,25.33
2019-02-19T13:09:49.935Z,25.80
2019-02-19T13:11:25.544Z,26.57
2019-02-19T13:13:01.186Z,26.63
2019-02-19T13:14:36.787Z,26.17
2019-02-19T13:16:12.413Z,26.17
2019-02-19T13:17:48.108Z,26.17
2019-02-19T13:19:23.749Z,25.03
2019-02-19T13:20:59.458Z,27.43
2019-02-19T13:22:35.204Z,26.77
2019-02-19T13:24:10.785Z,26.77
2019-02-19T13:25:46.403Z,28.67
2019-02-19T13:27:21.906Z,26.80
2019-02-19T13:28:57.507Z,26.10
2019-02-19T13:30:33.111Z,26.03
2019-02-19T13:32:10.435Z,25.53
2019-02-19T13:33:45.953Z,26.13
2019-02-19T13:35:21.616Z,27.30
2019-02-19T13:36:57.292Z,42.53
2019-02-19T13:38:33.017Z,31.80
2019-02-19T13:40:12.441Z,30.33
2019-02-19T13:41:48.068Z,28.10
2019-02-19T13:43:24.050Z,27.47
2019-02-19T13:45:01.310Z,26.87
2019-02-19T13:46:37.020Z,29.43
2019-02-19T13:48:12.724Z,25.23
2019-02-19T13:49:49.403Z,26.53
2019-02-19T13:51:27.874Z,25.30
2019-02-19T13:53:05.063Z,26.03
2019-02-19T13:54:41.647Z,25.00
2019-02-19T13:56:17.253Z,27.40
2019-02-19T13:57:52.932Z,26.90
2019-02-19T13:59:28.460Z,25.07
2019-02-19T14:01:04.311Z,25.93
2019-02-19T14:02:39.929Z,25.40
2019-02-19T14:04:15.425Z,24.20
2019-02-19T14:05:52.426Z,24.20
2019-02-19T14:07:28.230Z,24.73
2019-02-19T14:09:05.249Z,24.10
2019-02-19T14:10:41.057Z,25.17
2019-02-19T14:12:16.839Z,24.47
2019-02-19T14:13:54.111Z,26.17
2019-02-19T14:15:40.107Z,25.30
2019-02-19T14:17:15.709Z,26.50
2019-02-19T14:18:52.959Z,25.57
2019-02-19T14:20:30.150Z,24.37
2019-02-19T14:22:23.695Z,23.80
2019-02-19T14:24:01.764Z,24.70
2019-02-19T14:25:42.038Z,24.30
2019-02-19T14:27:19.297Z,25.30
2019-02-19T14:29:00.840Z,26.13
2019-02-19T14:30:54.406Z,26.27
2019-02-19T14:32:47.864Z,25.13
2019-02-19T14:34:41.261Z,25.10
2019-02-19T14:36:34.800Z,25.87
2019-02-19T14:38:12.041Z,25.90
2019-02-19T14:39:58.345Z,25.70
2019-02-19T14:41:38.292Z,25.97
2019-02-19T14:43:31.822Z,25.43
2019-02-19T14:45:23.884Z,25.43
2019-02-19T14:47:02.162Z,26.43
2019-02-19T14:48:41.996Z,27.33
2019-02-19T14:50:34.975Z,25.90
2019-02-19T14:52:16.191Z,26.47
2019-02-19T14:53:59.072Z,26.10
2019-02-19T14:55:40.503Z,25.47
2019-02-19T14:57:34.327Z,26.47
2019-02-19T14:59:20.889Z,26.10
2019-02-19T15:01:10.123Z,26.37
2019-02-19T15:02:47.606Z,26.60
2019-02-19T15:04:40.791Z,26.60
2019-02-19T15:06:23.921Z,27.93
2019-02-19T15:08:07.140Z,27.37
2019-02-19T15:09:48.183Z,28.23
2019-02-19T15:11:26.857Z,28.50
2019-02-19T15:13:09.947Z,28.17
2019-02-19T15:14:59.484Z,27.67
2019-02-19T15:16:42.784Z,32.23
2019-02-19T15:18:36.360Z,32.17
2019-02-19T15:20:26.072Z,33.73
2019-02-19T15:22:05.925Z,34.83
2019-02-19T15:23:52.089Z,40.47
2019-02-19T15:25:32.583Z,35.33
2019-02-19T15:27:18.904Z,30.13
2019-02-19T15:29:11.328Z,31.77
2019-02-19T15:32:35.227Z,35.53
2019-02-19T15:34:28.457Z,41.10
2019-02-19T15:36:03.962Z,49.67
2019-02-19T15:37:46.804Z,56.50
2019-02-19T15:39:22.282Z,59.00
2019-02-19T15:40:57.798Z,67.33
2019-02-19T15:42:41.902Z,68.37
2019-02-19T15:44:19.226Z,74.10
2019-02-19T15:46:14.634Z,73.60
2019-02-19T15:47:53.006Z,66.97
2019-02-19T15:49:30.255Z,63.83
2019-02-19T15:51:23.903Z,58.70
2019-02-19T15:53:13.538Z,56.20
2019-02-19T15:54:56.963Z,55.10
2019-02-19T15:56:47.359Z,55.17
2019-02-19T15:58:30.859Z,53.73
2019-02-19T16:00:22.650Z,53.07
2019-02-19T16:02:15.922Z,50.53
2019-02-19T16:04:09.002Z,52.27
2019-02-19T16:06:04.817Z,50.43
2019-02-19T16:07:51.317Z,48.73
2019-02-19T16:09:43.887Z,46.30
2019-02-19T16:11:21.130Z,47.60
2019-02-19T16:13:07.561Z,49.30
2019-02-19T16:15:01.101Z,48.97
2019-02-19T16:16:39.561Z,48.73
2019-02-19T16:18:16.731Z,53.77
2019-02-19T16:19:59.436Z,55.20
2019-02-19T16:21:39.433Z,59.13
2019-02-19T16:23:15.167Z,61.70
2019-02-19T16:24:58.480Z,64.47
2019-02-19T16:26:47.598Z,65.67
2019-02-19T16:28:35.371Z,61.93
2019-02-19T16:30:23.047Z,60.87
2019-02-19T16:32:06.370Z,61.80
2019-02-19T16:33:43.721Z,67.30
2019-02-19T16:35:23.708Z,67.97
2019-02-19T16:37:08.128Z,66.20
2019-02-19T16:38:54.587Z,69.20
2019-02-19T16:40:32.693Z,88.20
2019-02-19T16:42:12.539Z,98.00
2019-02-19T16:44:06.222Z,92.10
2019-02-19T16:45:46.299Z,88.13
2019-02-19T16:47:29.695Z,92.77
2019-02-19T16:49:12.936Z,93.03
2019-02-19T16:50:53.275Z,93.97
2019-02-19T16:52:33.270Z,86.80
2019-02-19T16:54:16.855Z,79.83
2019-02-19T16:55:54.022Z,72.73
2019-02-19T16:57:34.244Z,65.97
2019-02-19T16:59:11.475Z,62.17
2019-02-19T17:00:54.839Z,60.57
2019-02-19T17:02:48.509Z,57.77
2019-02-19T17:04:41.546Z,52.13
2019-02-19T17:06:21.794Z,51.20
2019-02-19T17:08:17.373Z,53.43
2019-02-19T17:09:54.630Z,52.10
2019-02-19T17:11:31.934Z,50.50
2019-02-19T17:13:09.097Z,52.50
2019-02-19T17:14:44.573Z,51.93
2019-02-19T17:16:34.275Z,54.97
2019-02-19T17:18:12.517Z,54.90
2019-02-19T17:19:58.883Z,56.47
2019-02-19T17:21:51.015Z,57.60
2019-02-19T17:23:44.317Z,55.23
2019-02-19T17:25:33.865Z,57.63
2019-02-19T17:27:27.236Z,58.43
2019-02-19T17:29:04.486Z,58.20
2019-02-19T17:30:50.719Z,59.83
2019-02-19T17:32:30.949Z,66.00
2019-02-19T17:34:06.315Z,66.27
2019-02-19T17:35:41.812Z,67.83
2019-02-19T17:37:35.314Z,62.80
2019-02-19T17:39:12.647Z,62.10
2019-02-19T17:40:51.251Z,61.67
2019-02-19T17:42:44.041Z,61.60
2019-02-19T17:44:24.216Z,59.87
2019-02-19T17:46:07.741Z,58.80
2019-02-19T17:47:50.838Z,60.20
2019-02-19T17:49:45.898Z,64.10
2019-02-19T17:51:32.304Z,62.10
2019-02-19T17:53:09.542Z,61.20
2019-02-19T17:54:55.894Z,60.73
2019-02-19T17:56:33.140Z,64.47
2019-02-19T17:58:16.345Z,66.50
2019-02-19T17:59:53.580Z,66.50
2019-02-19T18:01:42.812Z,65.93
2019-02-19T18:03:29.061Z,68.47
2019-02-19T18:05:23.213Z,71.93
2019-02-19T18:07:03.554Z,75.07
2019-02-19T18:08:59.375Z,81.77
2019-02-19T18:10:45.639Z,91.20
2019-02-19T18:12:42.037Z,98.17
2019-02-19T18:14:25.096Z,97.37
2019-02-19T18:16:18.935Z,96.10
2019-02-19T18:17:56.263Z,99.43
2019-02-19T18:19:33.015Z,120.73
2019-02-19T18:21:08.737Z,120.70
2019-02-19T18:22:44.434Z,104.63
2019-02-19T18:24:19.935Z,92.07
2019-02-19T18:25:55.528Z,90.40
2019-02-19T18:27:31.171Z,92.80
2019-02-19T18:29:06.773Z,91.70
2019-02-19T18:30:42.259Z,97.73
2019-02-19T18:32:17.956Z,98.33
2019-02-19T18:33:53.663Z,100.23
2019-02-19T18:35:31.546Z,99.53
2019-02-19T18:37:07.161Z,97.13
2019-02-19T18:38:42.847Z,98.27
2019-02-19T18:40:18.429Z,97.33
2019-02-19T18:41:56.174Z,95.23
2019-02-19T18:43:51.215Z,97.30
2019-02-19T18:45:26.854Z,96.53
2019-02-19T18:47:02.558Z,92.33
2019-02-19T18:48:38.176Z,88.70
2019-02-19T18:50:13.767Z,90.40
2019-02-19T18:51:50.770Z,92.57
2019-02-19T18:53:26.370Z,94.50
2019-02-19T18:55:01.994Z,97.13
2019-02-19T18:56:37.595Z,100.83
2019-02-19T18:58:13.106Z,104.23
2019-02-19T18:59:48.708Z,106.17
2019-02-19T19:01:24.342Z,105.53
2019-02-19T19:02:59.940Z,103.27
2019-02-19T19:04:35.629Z,97.30
2019-02-19T19:06:11.223Z,98.47
2019-02-19T19:07:46.850Z,107.50
2019-02-19T19:09:22.465Z,122.93
2019-02-19T19:10:58.156Z,154.20
2019-02-19T19:12:33.760Z,171.77
2019-02-19T19:14:09.383Z,180.40
2019-02-19T19:15:44.886Z,168.03
2019-02-19T19:17:20.496Z,153.13
2019-02-19T19:18:56.189Z,151.70
2019-02-19T19:20:31.724Z,143.57
2019-02-19T19:22:07.222Z,151.20
2019-02-19T19:23:42.845Z,164.27
2019-02-19T19:25:19.834Z,169.53
2019-02-19T19:26:55.542Z,166.77
2019-02-19T19:28:31.432Z,160.23
2019-02-19T19:30:15.661Z,138.17
2019-02-19T19:31:51.258Z,137.77
2019-02-19T19:33:27.040Z,127.17
2019-02-19T19:35:02.465Z,108.90
2019-02-19T19:36:38.581Z,104.83
2019-02-19T19:38:14.352Z,100.10
2019-02-19T19:39:49.946Z,103.33
2019-02-19T19:41:25.542Z,103.40
2019-02-19T19:43:01.255Z,100.67
2019-02-19T19:44:36.887Z,104.80
2019-02-19T19:46:12.514Z,115.77
2019-02-19T19:47:48.680Z,120.17
2019-02-19T19:49:24.360Z,119.67
2019-02-19T19:51:00.089Z,119.63
2019-02-19T19:52:35.688Z,116.80
2019-02-19T19:54:11.354Z,117.40
2019-02-19T19:55:46.979Z,104.43
2019-02-19T19:57:22.878Z,100.30
2019-02-19T19:58:58.575Z,95.30
2019-02-19T20:00:34.225Z,93.90
2019-02-19T20:02:09.798Z,83.67
2019-02-19T20:03:45.497Z,76.00
2019-02-19T20:05:21.057Z,75.00
2019-02-19T20:06:58.184Z,78.30
2019-02-19T20:08:33.780Z,86.80
2019-02-19T20:10:14.912Z,91.97
2019-02-19T20:11:50.591Z,92.63
2019-02-19T20:13:29.867Z,92.73
2019-02-19T20:15:10.488Z,92.53
2019-02-19T20:16:46.106Z,89.20
2019-02-19T20:18:22.024Z,85.97
2019-02-19T20:19:57.788Z,86.43
2019-02-19T20:21:33.419Z,85.03
2019-02-19T20:23:09.110Z,84.57
2019-02-19T20:24:44.870Z,83.60
2019-02-19T20:26:22.471Z,81.33
2019-02-19T20:27:57.935Z,83.27
2019-02-19T20:29:36.503Z,78.20
2019-02-19T20:31:12.108Z,80.87
2019-02-19T20:32:47.950Z,82.20
2019-02-19T20:34:23.583Z,85.47
2019-02-19T20:35:59.170Z,86.60
2019-02-19T20:37:35.127Z,91.77
2019-02-19T20:39:12.402Z,89.37
2019-02-19T20:40:48.106Z,96.43
2019-02-19T20:42:23.662Z,91.23
2019-02-19T20:43:59.557Z,89.90
2019-02-19T20:45:35.229Z,87.73
2019-02-19T20:47:11.336Z,86.30
2019-02-19T20:48:47.154Z,79.20
2019-02-19T20:50:22.804Z,79.87
2019-02-19T20:51:58.596Z,79.77
2019-02-19T20:53:34.389Z,81.63
2019-02-19T20:55:13.228Z,79.67